Cherry Grove Beach, South Carolina
Current Conditions -  °F | °C
As of 2:53 AM on Sunday 26 Oct 2014 (Local Time) from KCRE Reporting Station
Clear Clear  
Wind Chill: 57°   Ceiling: Unl
Heat Index: 57°   Visibility: 10mi
Dew Point: 44°   Wind: 5mph
Humidity: 62%   Direction: 270°W
Pressure: 29.89"   Gusts: NA
Location:  33.8371°N, 78.6471°W
Report Text: KCRE 260653Z AUTO 27004KT 10SM CLR 14/07 A2989 RMK AO1 SLP121 T01390067
Loading
Personal Weather Stations






























Interactive Weather Map
Tropical Storm Tracking
New forecast layout! Learn more

10-Day Weather Forecast

Advertisements
Track Severe Weather on mobile